Alna, Maine
Current Conditions -  °F | °C
As of 9:53 PM on Tuesday 25 Nov 2014 (Local Time) from KIWI Reporting Station
Clear Clear  
Wind Chill:   Ceiling: Unl
Heat Index:   Visibility: 10mi
Dew Point:   Wind: 0mph
Humidity: 86%   Direction: NA
Pressure: 30.03"   Gusts: NA
Location:  44.11°N, 69.6°W
Report Text: KIWI 260253Z AUTO 00000KT 10SM CLR 03/01 A3003 RMK AO2 SLP168 T00330011 53025
Loading
Personal Weather Stations






























Interactive Weather Map New forecast layout! Learn more

10-Day Weather Forecast

Advertisements
Track Severe Weather on mobile